Time;durP1;ratioP1;P1;durP2;ratioP2;P2;SDS_P1;SDS_P2;PMS_P1;PMS_P2;Temp;Humidity;BMP_temperature;BMP_pressure;BME280_temperature;BME280_humidity;BME280_pressure;Samples;Min_cycle;Max_cycle;Signal;HPM_P1;HPM_P2
2021/01/28 00:01:54;;;;;;;51.97;24.90;;;6.20;99.90;;;;;;5004509;28;20399;-74
2021/01/28 00:04:20;;;;;;;52.13;27.60;;;6.20;99.90;;;;;;5016039;28;20215;-77
2021/01/28 00:06:45;;;;;;;47.40;25.43;;;6.20;99.90;;;;;;5003138;28;20212;-77
2021/01/28 00:09:11;;;;;;;52.13;25.63;;;6.20;99.90;;;;;;5010978;28;20164;-76
2021/01/28 00:11:36;;;;;;;48.90;26.37;;;6.20;99.90;;;;;;5018104;28;20215;-75
2021/01/28 00:14:02;;;;;;;49.83;26.00;;;6.20;99.90;;;;;;5015514;28;20195;-76
2021/01/28 00:16:28;;;;;;;38.60;23.73;;;6.20;99.90;;;;;;5014965;28;20176;-76
2021/01/28 00:18:54;;;;;;;47.03;26.70;;;6.20;99.90;;;;;;5008850;28;20415;-75
2021/01/28 00:21:19;;;;;;;53.93;24.13;;;6.20;99.90;;;;;;5011736;28;20287;-76
2021/01/28 00:23:45;;;;;;;44.93;24.10;;;6.20;99.90;;;;;;5000396;28;20177;-75
2021/01/28 00:26:11;;;;;;;41.40;23.53;;;6.20;99.90;;;;;;4996460;28;20287;-75
2021/01/28 00:28:36;;;;;;;43.30;24.70;;;6.20;99.90;;;;;;4996611;28;20180;-75
2021/01/28 00:31:02;;;;;;;46.80;25.27;;;6.30;99.90;;;;;;4996173;28;20238;-76
2021/01/28 00:33:28;;;;;;;46.93;24.83;;;6.20;99.90;;;;;;4996265;28;20179;-75
2021/01/28 00:35:56;;;;;;;47.20;24.33;;;6.20;99.90;;;;;;4995903;28;20526;-76
2021/01/28 00:38:26;;;;;;;45.57;24.63;;;6.30;99.90;;;;;;4996023;28;20684;-74
2021/01/28 00:40:53;;;;;;;47.53;23.70;;;6.30;99.90;;;;;;4995393;28;20420;-75
2021/01/28 00:43:18;;;;;;;41.43;23.50;;;6.30;99.90;;;;;;4995803;28;20419;-75
2021/01/28 00:45:44;;;;;;;41.43;22.17;;;6.30;99.90;;;;;;4995643;28;20490;-75
2021/01/28 00:48:10;;;;;;;40.00;22.90;;;6.30;99.90;;;;;;4994605;28;20411;-75
2021/01/28 00:50:37;;;;;;;35.83;20.77;;;6.30;99.90;;;;;;4995471;28;20486;-75
2021/01/28 00:53:03;;;;;;;40.07;23.43;;;6.30;99.90;;;;;;4994036;28;20518;-75
2021/01/28 00:55:29;;;;;;;39.23;22.70;;;6.30;99.90;;;;;;4995722;28;20570;-75
2021/01/28 00:57:55;;;;;;;38.70;21.80;;;6.20;99.90;;;;;;4995171;28;20463;-75
2021/01/28 01:00:39;;;;;;;43.93;23.80;;;6.30;99.90;;;;;;4994162;28;20474;-75
2021/01/28 01:03:06;;;;;;;44.37;23.30;;;6.30;99.90;;;;;;4993384;28;20761;-75
2021/01/28 01:05:32;;;;;;;35.97;21.80;;;6.30;99.90;;;;;;4993630;28;20540;-75
2021/01/28 01:07:59;;;;;;;43.60;21.77;;;6.30;99.90;;;;;;4994128;28;20467;-75
2021/01/28 01:10:28;;;;;;;39.93;21.67;;;6.30;99.90;;;;;;4992996;28;20442;-75
2021/01/28 01:12:54;;;;;;;39.37;22.73;;;6.30;99.90;;;;;;4995088;28;20813;-75
2021/01/28 01:15:19;;;;;;;42.70;22.60;;;6.30;99.90;;;;;;4993719;28;20474;-76
2021/01/28 01:17:45;;;;;;;38.73;22.33;;;6.40;99.90;;;;;;4994744;28;20239;-75
2021/01/28 01:20:11;;;;;;;37.80;22.13;;;6.40;99.90;;;;;;4994789;28;20215;-75
2021/01/28 01:22:37;;;;;;;38.60;21.60;;;6.40;99.90;;;;;;4994873;28;20653;-75
2021/01/28 01:25:03;;;;;;;43.83;22.63;;;6.40;99.90;;;;;;4994620;28;20470;-75
2021/01/28 01:27:29;;;;;;;48.30;23.33;;;6.50;99.90;;;;;;4995223;28;20183;-75
2021/01/28 01:29:54;;;;;;;39.33;22.10;;;6.40;99.90;;;;;;4994718;28;20980;-75
2021/01/28 01:32:20;;;;;;;39.20;22.70;;;6.40;99.90;;;;;;4993731;28;20196;-75
2021/01/28 01:34:45;;;;;;;39.23;22.57;;;6.40;99.90;;;;;;4995427;28;20642;-75
2021/01/28 01:37:11;;;;;;;39.90;20.67;;;6.30;99.90;;;;;;4993605;28;20279;-75
2021/01/28 01:39:36;;;;;;;46.23;23.80;;;6.30;99.90;;;;;;4994841;28;20229;-75
2021/01/28 01:42:06;;;;;;;43.03;22.60;;;6.30;99.90;;;;;;4996492;28;20263;-74
2021/01/28 01:44:32;;;;;;;43.00;22.50;;;6.20;99.90;;;;;;4994804;28;20236;-74
2021/01/28 01:47:17;;;;;;;40.40;20.60;;;6.30;99.90;;;;;;4994484;28;20627;-74
2021/01/28 06:02:22;;;;;;;7.13;4.70;;;5.30;99.90;;;;;;5334424;23;20491;-73
2021/01/28 06:04:56;;;;;;;9.33;6.80;;;5.30;99.90;;;;;;4985592;28;20815;-72
2021/01/28 06:07:41;;;;;;;6.90;5.80;;;5.30;99.90;;;;;;4998237;28;20570;-72
2021/01/28 06:10:15;;;;;;;6.63;5.33;;;5.20;99.90;;;;;;4994765;28;20491;-72
2021/01/28 06:12:52;;;;;;;7.87;6.27;;;5.20;99.90;;;;;;4991922;28;20516;-71
2021/01/28 06:15:25;;;;;;;7.93;5.57;;;5.30;99.90;;;;;;4986644;28;20432;-72
2021/01/28 06:18:06;;;;;;;5.87;5.07;;;5.20;99.90;;;;;;4983410;28;20429;-72
2021/01/28 06:20:52;;;;;;;5.60;4.30;;;5.20;99.90;;;;;;4992269;28;20796;-71
2021/01/28 06:23:36;;;;;;;6.03;4.20;;;5.30;99.90;;;;;;4995870;28;20451;-71
2021/01/28 06:26:24;;;;;;;5.03;4.37;;;5.40;99.90;;;;;;4993380;28;20989;-72
2021/01/28 06:29:27;;;;;;;6.00;4.60;;;5.40;99.90;;;;;;4992721;28;20446;-72
2021/01/28 06:32:11;;;;;;;5.00;3.90;;;5.30;99.90;;;;;;4992948;28;20865;-71
2021/01/28 06:35:01;;;;;;;4.63;4.23;;;5.40;99.90;;;;;;4993051;28;20747;-72
2021/01/28 06:37:48;;;;;;;4.83;3.97;;;5.40;99.90;;;;;;4980601;28;20959;-71
2021/01/28 06:40:20;;;;;;;4.63;3.80;;;5.30;99.90;;;;;;4993290;28;20977;-71
2021/01/28 06:42:54;;;;;;;4.07;3.67;;;5.30;99.90;;;;;;4993188;28;20430;-72
2021/01/28 06:45:23;;;;;;;4.37;3.97;;;5.30;99.90;;;;;;4988172;28;20537;-71
2021/01/28 06:48:00;;;;;;;4.30;3.90;;;5.30;99.90;;;;;;4983836;28;20424;-71
2021/01/28 06:50:44;;;;;;;5.40;4.40;;;5.40;99.90;;;;;;4980384;28;20430;-71
2021/01/28 06:53:37;;;;;;;4.30;3.90;;;5.40;99.90;;;;;;4987394;28;20463;-70
2021/01/28 06:56:25;;;;;;;3.87;3.47;;;5.60;99.90;;;;;;4987660;28;20538;-70
2021/01/28 06:59:18;;;;;;;4.00;3.60;;;5.60;99.90;;;;;;4993682;28;20437;-70
2021/01/28 07:02:20;;;;;;;4.27;3.10;;;5.60;99.90;;;;;;4995973;28;20415;-70
2021/01/28 07:04:53;;;;;;;4.40;3.30;;;5.50;99.90;;;;;;4996345;28;20441;-70
2021/01/28 07:07:22;;;;;;;3.80;3.33;;;5.50;99.90;;;;;;4995166;28;20459;-70
2021/01/28 07:10:04;;;;;;;3.63;3.30;;;5.40;99.90;;;;;;4994081;28;20411;-72
2021/01/28 07:12:43;;;;;;;3.47;3.17;;;5.30;99.90;;;;;;5004491;28;20428;-72
2021/01/28 07:15:11;;;;;;;3.63;3.13;;;5.40;99.90;;;;;;4993024;28;20488;-71
2021/01/28 07:17:41;;;;;;;4.73;3.90;;;5.40;99.90;;;;;;5006433;28;20415;-71
2021/01/28 07:20:29;;;;;;;5.43;4.27;;;5.40;99.90;;;;;;4995676;28;20435;-72
2021/01/28 07:23:14;;;;;;;6.00;3.47;;;5.40;99.90;;;;;;4996118;28;20441;-71
2021/01/28 07:25:41;;;;;;;2.90;2.70;;;5.40;99.90;;;;;;4993243;28;20467;-72
2021/01/28 07:28:13;;;;;;;4.30;3.13;;;5.50;99.90;;;;;;4982961;28;20434;-72
2021/01/28 07:31:07;;;;;;;3.50;3.20;;;5.60;99.90;;;;;;4995855;28;20415;-71
2021/01/28 07:33:37;;;;;;;6.00;3.97;;;5.60;99.90;;;;;;4976425;28;20458;-71
2021/01/28 07:36:22;;;;;;;5.50;3.60;;;5.50;99.90;;;;;;5004783;28;20451;-71
2021/01/28 07:38:55;;;;;;;3.40;3.10;;;5.50;99.90;;;;;;4992258;28;20760;-71
2021/01/28 07:41:26;;;;;;;4.80;3.00;;;5.50;99.90;;;;;;4985163;28;20460;-71
2021/01/28 07:44:14;;;;;;;6.10;3.67;;;5.50;99.90;;;;;;4988947;28;20525;-72
2021/01/28 07:46:41;;;;;;;4.47;4.07;;;5.50;99.90;;;;;;4977156;28;20470;-71
2021/01/28 07:49:17;;;;;;;3.73;3.37;;;5.60;99.90;;;;;;4979511;28;20485;-72
2021/01/28 07:51:46;;;;;;;3.83;3.30;;;5.70;99.90;;;;;;4975961;28;20439;-72
2021/01/28 07:54:23;;;;;;;3.97;3.50;;;5.70;99.90;;;;;;4993192;28;20890;-71
2021/01/28 07:56:57;;;;;;;3.70;3.13;;;5.80;99.90;;;;;;4993713;28;20423;-71
2021/01/28 07:59:22;;;;;;;3.23;2.90;;;5.80;99.90;;;;;;4992597;28;20436;-71
2021/01/28 08:01:52;;;;;;;3.43;2.87;;;5.80;99.90;;;;;;4993353;28;20846;-70
2021/01/28 08:04:27;;;;;;;5.40;3.87;;;5.80;99.90;;;;;;4993206;28;20669;-70
2021/01/28 08:06:55;;;;;;;3.93;3.20;;;5.80;99.90;;;;;;4994039;28;20814;-70
2021/01/28 08:09:20;;;;;;;4.50;3.50;;;5.70;99.90;;;;;;4991072;28;20498;-70
2021/01/28 08:11:56;;;;;;;6.50;2.87;;;5.80;99.90;;;;;;4994852;28;20846;-70
2021/01/28 08:14:24;;;;;;;3.57;3.27;;;5.80;99.90;;;;;;4998536;28;20171;-70
2021/01/28 08:16:52;;;;;;;4.57;3.00;;;5.90;99.90;;;;;;4995077;28;20987;-70
2021/01/28 08:19:22;;;;;;;3.80;3.00;;;5.90;99.90;;;;;;4995376;28;20420;-71
2021/01/28 08:21:48;;;;;;;8.07;5.87;;;6.00;99.90;;;;;;4979192;28;20833;-70
2021/01/28 08:24:34;;;;;;;4.30;3.40;;;5.90;99.90;;;;;;4995236;28;20411;-70
2021/01/28 08:27:13;;;;;;;4.20;3.27;;;5.80;99.90;;;;;;4991883;28;20463;-70
2021/01/28 08:29:39;;;;;;;8.13;3.73;;;5.70;99.90;;;;;;5009185;28;20438;-70
2021/01/28 08:32:18;;;;;;;3.40;3.07;;;5.60;99.90;;;;;;5014999;28;20458;-70
2021/01/28 08:34:44;;;;;;;3.67;3.03;;;5.50;99.90;;;;;;5005992;28;20226;-70
2021/01/28 08:37:14;;;;;;;3.43;3.13;;;5.50;99.90;;;;;;4999706;28;20444;-70
2021/01/28 08:39:40;;;;;;;3.27;2.83;;;5.50;99.90;;;;;;4998519;28;20946;-71
2021/01/28 08:42:09;;;;;;;3.60;3.30;;;5.50;99.90;;;;;;4994452;28;20443;-70
2021/01/28 08:44:36;;;;;;;3.73;3.10;;;5.50;99.90;;;;;;4987373;28;20826;-70
2021/01/28 08:47:12;;;;;;;3.40;3.10;;;5.50;99.90;;;;;;4994112;28;20493;-71
2021/01/28 08:49:38;;;;;;;3.10;2.80;;;5.30;99.90;;;;;;4994666;28;20417;-71
2021/01/28 08:52:07;;;;;;;3.33;2.80;;;5.40;99.90;;;;;;4990799;28;20435;-71
2021/01/28 08:54:36;;;;;;;3.47;3.17;;;5.40;99.90;;;;;;5000243;28;20199;-72
2021/01/28 08:57:03;;;;;;;3.00;2.70;;;5.40;99.90;;;;;;4992049;28;20423;-71
2021/01/28 08:59:40;;;;;;;3.87;3.00;;;5.40;99.90;;;;;;4994090;28;20609;-71
2021/01/28 09:02:10;;;;;;;2.60;2.40;;;5.50;99.90;;;;;;4988049;28;20451;-71
2021/01/28 09:04:39;;;;;;;2.67;2.47;;;5.50;99.90;;;;;;4989976;28;20482;-71
2021/01/28 09:07:05;;;;;;;3.00;2.80;;;5.60;99.90;;;;;;4984027;28;20963;-72
2021/01/28 09:09:34;;;;;;;2.60;2.40;;;5.60;99.90;;;;;;4986488;28;20416;-72
2021/01/28 09:12:21;;;;;;;3.07;2.77;;;5.60;99.90;;;;;;4987488;28;20656;-72
2021/01/28 09:14:46;;;;;;;2.40;2.20;;;5.60;99.90;;;;;;4989896;28;20454;-72
2021/01/28 09:17:30;;;;;;;2.63;2.43;;;5.60;99.90;;;;;;4994267;28;20420;-72
2021/01/28 09:19:59;;;;;;;2.70;2.50;;;5.60;99.90;;;;;;4998816;28;20188;-72
2021/01/28 09:22:39;;;;;;;3.70;3.00;;;5.60;99.90;;;;;;4993381;28;20445;-72
2021/01/28 09:25:18;;;;;;;2.77;2.47;;;5.60;99.90;;;;;;4994022;28;20857;-71
2021/01/28 09:27:58;;;;;;;2.90;2.70;;;5.60;99.90;;;;;;4978639;28;20427;-72
2021/01/28 09:30:30;;;;;;;2.93;2.63;;;5.70;99.90;;;;;;4986045;28;20424;-72
2021/01/28 09:32:55;;;;;;;2.50;2.30;;;5.70;99.90;;;;;;4987339;28;20427;-72
2021/01/28 09:35:26;;;;;;;2.40;2.17;;;5.60;99.90;;;;;;4994047;28;20410;-71
2021/01/28 09:38:11;;;;;;;2.30;2.10;;;5.60;99.90;;;;;;4993210;28;20179;-71
2021/01/28 09:40:43;;;;;;;2.87;2.67;;;5.70;99.90;;;;;;4989572;28;20439;-71
2021/01/28 09:43:26;;;;;;;2.60;2.40;;;5.70;99.90;;;;;;4991782;28;20920;-71
2021/01/28 09:46:02;;;;;;;2.50;2.30;;;5.60;99.90;;;;;;4993138;28;20532;-72
2021/01/28 09:48:28;;;;;;;2.70;2.50;;;5.70;99.90;;;;;;4982248;28;20463;-72
2021/01/28 09:50:54;;;;;;;2.37;2.10;;;5.80;99.90;;;;;;4985751;28;20455;-71
2021/01/28 09:53:19;;;;;;;3.20;2.90;;;5.80;99.90;;;;;;4993213;28;20192;-73
2021/01/28 09:55:45;;;;;;;3.33;2.40;;;5.80;99.90;;;;;;4992214;28;20241;-71
2021/01/28 09:58:10;;;;;;;2.60;2.30;;;5.80;99.90;;;;;;4986192;28;20177;-72
2021/01/28 10:00:36;;;;;;;2.00;1.90;;;5.90;99.90;;;;;;4993515;28;20180;-71
2021/01/28 10:03:05;;;;;;;3.00;2.70;;;5.90;99.90;;;;;;4994099;28;20196;-71
2021/01/28 10:05:32;;;;;;;2.10;1.90;;;6.00;99.90;;;;;;4994086;28;20188;-71
2021/01/28 10:07:58;;;;;;;2.47;2.00;;;6.00;99.90;;;;;;4992551;28;20419;-72
2021/01/28 10:10:26;;;;;;;2.10;1.80;;;6.10;99.90;;;;;;4985068;28;20426;-71
2021/01/28 10:12:54;;;;;;;2.30;2.10;;;6.10;99.90;;;;;;4995976;28;20436;-72
2021/01/28 10:15:20;;;;;;;1.80;1.70;;;6.10;99.90;;;;;;5004739;28;20472;-72
2021/01/28 10:17:46;;;;;;;2.10;1.90;;;6.10;99.90;;;;;;4990100;28;20502;-71
2021/01/28 10:20:13;;;;;;;2.20;2.10;;;6.10;99.90;;;;;;4989298;28;20506;-71
2021/01/28 10:22:41;;;;;;;2.50;1.57;;;6.20;99.90;;;;;;5002116;28;20209;-71
2021/01/28 10:25:10;;;;;;;3.00;2.40;;;6.20;99.90;;;;;;4996830;28;20814;-72
2021/01/28 10:27:36;;;;;;;2.30;2.10;;;6.20;99.90;;;;;;4993692;28;20455;-71
2021/01/28 10:30:03;;;;;;;2.40;2.00;;;6.30;99.90;;;;;;5006107;28;20478;-72
2021/01/28 10:32:28;;;;;;;1.60;1.50;;;6.20;99.90;;;;;;4996778;28;20192;-72
2021/01/28 10:34:54;;;;;;;5.23;2.10;;;6.20;99.90;;;;;;4995246;28;21026;-71
2021/01/28 10:37:19;;;;;;;5.97;3.30;;;6.10;99.90;;;;;;4996907;28;20203;-72
2021/01/28 10:39:45;;;;;;;2.10;2.00;;;6.20;99.90;;;;;;4981119;28;20172;-71
2021/01/28 10:42:18;;;;;;;1.97;1.87;;;6.20;99.90;;;;;;4997032;28;20435;-73
2021/01/28 10:44:43;;;;;;;2.13;1.93;;;6.20;99.90;;;;;;4996984;28;20184;-71
2021/01/28 10:47:09;;;;;;;1.93;1.80;;;6.10;99.90;;;;;;4995236;28;20467;-72
2021/01/28 10:49:34;;;;;;;1.90;1.80;;;6.20;99.90;;;;;;4994772;28;20552;-71
2021/01/28 10:52:00;;;;;;;2.30;2.07;;;6.30;99.90;;;;;;4996517;28;20181;-73
2021/01/28 10:54:25;;;;;;;2.20;2.00;;;6.20;99.90;;;;;;4996054;28;20204;-71
2021/01/28 10:56:53;;;;;;;2.47;2.27;;;6.20;99.90;;;;;;4996776;28;20643;-71
2021/01/28 10:59:18;;;;;;;2.57;2.13;;;6.20;99.90;;;;;;4996402;28;20180;-71
2021/01/28 11:01:44;;;;;;;1.90;1.80;;;6.20;99.90;;;;;;4994882;28;20419;-72
2021/01/28 11:04:09;;;;;;;1.90;1.80;;;6.10;99.90;;;;;;4998982;28;20731;-72
2021/01/28 11:06:35;;;;;;;1.93;1.83;;;6.10;99.90;;;;;;4999186;28;20216;-72
2021/01/28 11:09:00;;;;;;;1.87;1.63;;;6.10;99.90;;;;;;4998278;28;20172;-71
2021/01/28 11:11:26;;;;;;;2.10;2.00;;;6.10;99.90;;;;;;4998305;28;20266;-71
2021/01/28 11:13:52;;;;;;;2.60;2.40;;;6.20;99.90;;;;;;4988912;28;20278;-71
2021/01/28 11:16:23;;;;;;;1.80;1.70;;;6.20;99.90;;;;;;4986382;28;20192;-72
2021/01/28 11:18:49;;;;;;;2.67;2.00;;;6.30;99.90;;;;;;4991929;28;20454;-71
2021/01/28 11:21:15;;;;;;;3.93;2.30;;;6.30;99.90;;;;;;4993088;28;20480;-71
2021/01/28 11:23:40;;;;;;;2.60;2.40;;;6.30;99.90;;;;;;4991162;28;20471;-72
2021/01/28 11:26:06;;;;;;;2.37;2.17;;;6.30;99.90;;;;;;4986179;28;20231;-71
2021/01/28 11:28:32;;;;;;;2.50;2.13;;;6.30;99.90;;;;;;4995038;28;20646;-71
2021/01/28 11:30:57;;;;;;;1.97;1.77;;;6.30;99.90;;;;;;4986403;28;20486;-71
2021/01/28 11:33:23;;;;;;;2.40;2.20;;;6.40;99.90;;;;;;4994183;28;20294;-71
2021/01/28 11:35:48;;;;;;;1.80;1.70;;;6.20;99.90;;;;;;4986370;28;20221;-71
2021/01/28 11:38:14;;;;;;;2.10;2.00;;;6.30;99.90;;;;;;4989298;28;20234;-71
2021/01/28 11:40:39;;;;;;;1.90;1.80;;;6.30;99.90;;;;;;4991501;28;20280;-71
2021/01/28 11:43:06;;;;;;;2.33;2.17;;;6.40;99.90;;;;;;4995791;28;20211;-71
2021/01/28 11:45:34;;;;;;;3.10;2.90;;;6.50;99.90;;;;;;4993731;28;20175;-71
2021/01/28 11:48:00;;;;;;;3.07;2.60;;;6.50;99.90;;;;;;4985244;28;20523;-71
2021/01/28 11:50:26;;;;;;;4.20;3.80;;;6.50;99.90;;;;;;4990066;28;20601;-72
2021/01/28 11:52:52;;;;;;;6.50;3.30;;;6.60;99.90;;;;;;4996014;28;20195;-71
2021/01/28 11:55:21;;;;;;;4.53;3.10;;;6.60;99.90;;;;;;4994890;28;20415;-72
2021/01/28 11:57:47;;;;;;;2.70;2.50;;;6.60;99.90;;;;;;4979586;28;20787;-71
2021/01/28 12:00:14;;;;;;;3.17;2.87;;;6.60;99.90;;;;;;4995691;28;20419;-72
2021/01/28 12:02:40;;;;;;;5.97;4.17;;;6.70;99.90;;;;;;4993793;28;20200;-71
2021/01/28 12:05:07;;;;;;;5.67;4.60;;;6.60;99.90;;;;;;4995508;28;20438;-71
2021/01/28 12:07:34;;;;;;;5.57;4.07;;;6.50;99.90;;;;;;4991864;28;20722;-71
2021/01/28 12:09:59;;;;;;;7.23;5.87;;;6.40;99.90;;;;;;4991498;28;20431;-72
2021/01/28 12:12:25;;;;;;;4.80;4.20;;;6.40;99.90;;;;;;5001644;28;20492;-71
2021/01/28 12:14:50;;;;;;;4.17;3.83;;;6.50;99.90;;;;;;4991946;28;20192;-72
2021/01/28 12:17:16;;;;;;;3.20;2.90;;;6.60;99.90;;;;;;4992029;28;20254;-70
2021/01/28 12:19:42;;;;;;;4.20;2.60;;;6.70;99.90;;;;;;4994080;28;20693;-71
2021/01/28 12:22:07;;;;;;;2.70;2.50;;;6.80;99.90;;;;;;4992541;28;20211;-72
2021/01/28 12:24:33;;;;;;;3.27;2.97;;;6.90;99.90;;;;;;4991342;28;20204;-71
2021/01/28 12:26:59;;;;;;;3.00;2.77;;;6.90;99.90;;;;;;4998271;28;20203;-72
2021/01/28 12:29:25;;;;;;;4.10;3.77;;;6.90;99.90;;;;;;4994709;28;20179;-71
2021/01/28 12:31:51;;;;;;;3.10;2.80;;;6.90;99.90;;;;;;4993860;28;20423;-72
2021/01/28 12:34:18;;;;;;;3.37;3.07;;;6.80;99.90;;;;;;4991616;28;20420;-72
2021/01/28 12:36:43;;;;;;;2.80;2.60;;;6.70;99.90;;;;;;4993775;28;20283;-72
2021/01/28 12:39:09;;;;;;;3.23;2.93;;;6.70;99.90;;;;;;4995045;28;20892;-72
2021/01/28 12:41:34;;;;;;;3.27;3.03;;;6.80;99.90;;;;;;4993497;28;20589;-72
2021/01/28 12:44:00;;;;;;;2.80;2.50;;;6.80;99.90;;;;;;4996983;28;20188;-72
2021/01/28 12:46:25;;;;;;;3.17;2.50;;;6.90;99.90;;;;;;4995498;28;20254;-71
2021/01/28 12:48:51;;;;;;;2.70;2.50;;;6.90;99.90;;;;;;4996586;28;20641;-71
2021/01/28 12:51:17;;;;;;;2.63;2.43;;;7.00;99.90;;;;;;4994886;28;20173;-71
2021/01/28 12:53:42;;;;;;;3.60;3.30;;;7.00;99.90;;;;;;4997080;28;20223;-71
2021/01/28 12:56:08;;;;;;;2.70;2.50;;;7.10;99.90;;;;;;4986033;28;20703;-71
2021/01/28 12:58:33;;;;;;;3.60;2.67;;;7.10;99.90;;;;;;4991819;28;20234;-71
2021/01/28 13:00:59;;;;;;;2.47;2.27;;;7.10;99.90;;;;;;4987227;28;20240;-71
2021/01/28 13:03:25;;;;;;;3.00;2.60;;;7.10;99.90;;;;;;4995915;28;20349;-71
2021/01/28 13:05:50;;;;;;;2.70;2.50;;;7.10;99.90;;;;;;4992949;28;20407;-70
2021/01/28 13:08:16;;;;;;;2.80;2.60;;;7.10;99.90;;;;;;4990061;28;20644;-71
2021/01/28 13:10:41;;;;;;;2.27;2.17;;;7.20;99.90;;;;;;4990667;28;20698;-70
2021/01/28 13:13:07;;;;;;;3.40;3.10;;;7.20;99.90;;;;;;4991075;28;20283;-71
2021/01/28 13:15:33;;;;;;;3.10;2.90;;;7.30;99.90;;;;;;4993027;28;20256;-72
2021/01/28 13:17:59;;;;;;;3.10;2.90;;;7.30;99.90;;;;;;4999486;28;20177;-71
2021/01/28 13:20:29;;;;;;;2.83;2.63;;;7.30;99.90;;;;;;4983646;28;20456;-70
2021/01/28 13:22:55;;;;;;;2.87;2.60;;;7.30;99.90;;;;;;4989548;28;20484;-70
2021/01/28 13:25:21;;;;;;;2.47;2.27;;;7.30;99.90;;;;;;4992631;28;20470;-71
2021/01/28 13:27:47;;;;;;;2.50;2.30;;;7.40;99.90;;;;;;4992714;28;20338;-71
2021/01/28 13:30:16;;;;;;;3.03;2.77;;;7.40;99.90;;;;;;4993725;28;20526;-71
2021/01/28 13:32:41;;;;;;;2.70;2.50;;;7.40;99.90;;;;;;4993597;28;20810;-71
2021/01/28 13:35:13;;;;;;;2.20;2.10;;;7.40;99.90;;;;;;4993808;28;20546;-71
2021/01/28 13:37:38;;;;;;;3.00;2.80;;;7.40;99.90;;;;;;4989361;28;20210;-71
2021/01/28 13:40:05;;;;;;;3.30;3.00;;;7.40;99.90;;;;;;4992806;28;20906;-71
2021/01/28 13:42:30;;;;;;;3.20;2.90;;;7.20;99.90;;;;;;4991745;28;20538;-71
2021/01/28 13:44:56;;;;;;;2.83;2.53;;;7.30;99.90;;;;;;4991499;28;20430;-71
2021/01/28 13:47:22;;;;;;;3.60;3.30;;;7.20;99.90;;;;;;4996730;28;20223;-71
2021/01/28 13:49:47;;;;;;;3.00;2.80;;;7.20;99.90;;;;;;4993496;28;20169;-71
2021/01/28 13:52:13;;;;;;;2.80;2.60;;;7.30;99.90;;;;;;4991137;28;20447;-71
2021/01/28 13:54:39;;;;;;;3.27;3.00;;;7.30;99.90;;;;;;4984542;28;20219;-71
2021/01/28 13:57:04;;;;;;;4.63;2.43;;;7.30;99.90;;;;;;4992261;28;20430;-71
2021/01/28 13:59:30;;;;;;;3.43;2.60;;;7.40;99.90;;;;;;4993144;28;20246;-71
2021/01/28 14:01:55;;;;;;;3.70;2.83;;;7.40;99.90;;;;;;4991991;28;20613;-72
2021/01/28 14:04:21;;;;;;;2.93;2.73;;;7.30;99.90;;;;;;4992430;28;20238;-71
2021/01/28 14:06:46;;;;;;;3.30;3.00;;;7.30;99.90;;;;;;4987619;28;20230;-71
2021/01/28 14:09:12;;;;;;;3.33;3.03;;;7.40;99.90;;;;;;4991569;28;20188;-72
2021/01/28 14:11:37;;;;;;;5.13;2.90;;;7.40;99.90;;;;;;4993136;28;20649;-72
2021/01/28 14:14:03;;;;;;;3.70;3.40;;;7.30;99.90;;;;;;4992879;28;20697;-71
2021/01/28 14:16:29;;;;;;;4.07;3.77;;;7.30;99.90;;;;;;4995233;28;20172;-71
2021/01/28 14:18:54;;;;;;;4.80;4.40;;;7.30;99.90;;;;;;4992602;28;20185;-71
2021/01/28 14:21:20;;;;;;;4.57;4.13;;;7.20;99.90;;;;;;4980250;28;20204;-71
2021/01/28 14:23:45;;;;;;;4.40;4.00;;;7.10;99.90;;;;;;4983143;28;20200;-71
2021/01/28 14:26:11;;;;;;;4.50;3.67;;;7.10;99.90;;;;;;4988157;28;20199;-71
2021/01/28 14:28:36;;;;;;;4.30;3.77;;;7.20;99.90;;;;;;4981464;28;20519;-71
2021/01/28 14:31:02;;;;;;;4.40;4.00;;;7.20;99.90;;;;;;4987281;28;20595;-71
2021/01/28 14:33:28;;;;;;;5.50;5.00;;;7.20;99.90;;;;;;4984367;28;20212;-71
2021/01/28 14:35:53;;;;;;;4.83;4.40;;;7.20;99.90;;;;;;4988997;28;20538;-71
2021/01/28 14:38:20;;;;;;;6.10;5.50;;;7.20;99.90;;;;;;4990556;28;20176;-72
2021/01/28 14:40:47;;;;;;;4.27;3.87;;;7.10;99.90;;;;;;4990064;28;20188;-71
2021/01/28 14:43:13;;;;;;;4.40;3.73;;;6.80;99.90;;;;;;4985886;28;20470;-71
2021/01/28 14:45:39;;;;;;;6.17;5.00;;;6.70;99.90;;;;;;4984372;28;20431;-71
2021/01/28 14:48:05;;;;;;;3.83;3.40;;;6.70;99.90;;;;;;4992795;28;20188;-71
2021/01/28 14:50:31;;;;;;;5.40;4.90;;;6.70;99.90;;;;;;4998123;28;20264;-71
2021/01/28 14:52:57;;;;;;;4.30;4.00;;;6.80;99.90;;;;;;4992963;28;20439;-71
2021/01/28 14:55:23;;;;;;;3.97;3.67;;;6.90;99.90;;;;;;4990526;28;20824;-71
2021/01/28 14:57:49;;;;;;;4.77;4.27;;;6.90;99.90;;;;;;4986216;28;20196;-71
2021/01/28 15:00:15;;;;;;;4.60;4.20;;;7.00;99.90;;;;;;4993162;28;20868;-71
2021/01/28 15:02:41;;;;;;;4.80;4.30;;;6.90;99.90;;;;;;4986127;28;20196;-71
2021/01/28 15:05:10;;;;;;;6.30;4.50;;;7.00;99.90;;;;;;4990408;28;20525;-71
2021/01/28 15:07:35;;;;;;;4.80;4.30;;;6.90;99.90;;;;;;4993201;28;20220;-71
2021/01/28 15:10:01;;;;;;;10.60;8.97;;;6.90;99.90;;;;;;4989583;28;20781;-71
2021/01/28 15:12:26;;;;;;;7.10;5.13;;;6.80;99.90;;;;;;4994728;28;20235;-71
2021/01/28 15:14:52;;;;;;;6.03;5.53;;;6.70;99.90;;;;;;4994969;28;20270;-71
2021/01/28 15:17:17;;;;;;;6.30;5.70;;;6.50;99.90;;;;;;4993021;28;20180;-71
2021/01/28 15:19:43;;;;;;;7.00;6.30;;;6.40;99.90;;;;;;4996157;28;20179;-71
2021/01/28 15:22:08;;;;;;;9.00;7.20;;;6.30;99.90;;;;;;4995719;28;20211;-71
2021/01/28 15:24:34;;;;;;;7.00;5.33;;;6.30;99.90;;;;;;4996488;28;20580;-71
2021/01/28 15:26:59;;;;;;;6.60;6.00;;;6.30;99.90;;;;;;4992888;28;20211;-72
2021/01/28 15:29:25;;;;;;;5.27;4.77;;;6.30;99.90;;;;;;4986056;28;20176;-72
2021/01/28 15:31:51;;;;;;;4.30;4.00;;;6.20;99.90;;;;;;4995553;28;20169;-71
2021/01/28 15:34:17;;;;;;;4.87;4.37;;;6.20;99.90;;;;;;4996264;28;20246;-71
2021/01/28 15:36:42;;;;;;;3.90;3.60;;;6.20;99.90;;;;;;4995930;28;20581;-71
2021/01/28 15:39:08;;;;;;;5.23;4.40;;;6.30;99.90;;;;;;4995987;28;20446;-71
2021/01/28 15:41:34;;;;;;;4.77;4.37;;;6.20;99.90;;;;;;4993503;28;20697;-71
2021/01/28 15:43:59;;;;;;;4.17;3.87;;;6.30;99.90;;;;;;4995450;28;20200;-72
2021/01/28 15:46:25;;;;;;;4.70;4.23;;;6.40;99.90;;;;;;4995640;28;20352;-72
2021/01/28 15:48:51;;;;;;;4.77;4.37;;;6.50;99.90;;;;;;4983921;28;20622;-71
2021/01/28 15:51:17;;;;;;;5.73;4.03;;;6.40;99.90;;;;;;4992063;28;20180;-70
2021/01/28 15:53:43;;;;;;;5.57;4.40;;;6.50;99.90;;;;;;4991751;28;20505;-72
2021/01/28 15:56:09;;;;;;;5.60;5.10;;;6.50;99.90;;;;;;4994725;28;20510;-71
2021/01/28 15:58:35;;;;;;;5.87;5.37;;;6.50;99.90;;;;;;4995496;28;20649;-72
2021/01/28 16:01:01;;;;;;;4.33;4.03;;;6.50;99.90;;;;;;4995012;28;20428;-72
2021/01/28 16:03:27;;;;;;;5.07;4.57;;;6.60;99.90;;;;;;4986246;28;20517;-72
2021/01/28 16:05:53;;;;;;;4.67;4.27;;;6.60;99.90;;;;;;4995481;28;20416;-71
2021/01/28 16:08:19;;;;;;;5.07;4.67;;;6.60;99.90;;;;;;4993407;28;20177;-72
2021/01/28 16:10:45;;;;;;;5.00;4.60;;;6.60;99.90;;;;;;4994817;28;20489;-72
2021/01/28 16:13:10;;;;;;;5.23;4.83;;;6.50;99.90;;;;;;4992248;28;20208;-71
2021/01/28 16:15:36;;;;;;;4.60;4.20;;;6.50;99.90;;;;;;4993370;28;20211;-72
2021/01/28 16:18:03;;;;;;;4.90;4.50;;;6.40;99.90;;;;;;4987862;28;20792;-71
2021/01/28 16:20:29;;;;;;;4.93;4.50;;;6.50;99.90;;;;;;4980731;28;20251;-71
2021/01/28 16:22:54;;;;;;;5.50;4.13;;;6.60;99.90;;;;;;4996823;28;20431;-71
2021/01/28 16:25:22;;;;;;;4.37;3.97;;;6.60;99.90;;;;;;4994139;28;20842;-71
2021/01/28 16:27:47;;;;;;;4.10;3.73;;;6.60;99.90;;;;;;4977666;28;20231;-72
2021/01/28 16:30:19;;;;;;;4.70;4.30;;;6.70;99.90;;;;;;4990877;28;20515;-72
2021/01/28 16:32:45;;;;;;;4.63;4.23;;;6.70;99.90;;;;;;4994777;28;20203;-72
2021/01/28 16:35:12;;;;;;;8.07;7.37;;;6.70;99.90;;;;;;4994974;28;20865;-71
2021/01/28 16:37:38;;;;;;;9.90;7.87;;;6.70;99.90;;;;;;4994338;28;20522;-70
2021/01/28 16:40:05;;;;;;;6.60;6.00;;;6.60;99.90;;;;;;4995062;28;20972;-71
2021/01/28 16:42:30;;;;;;;5.60;5.10;;;6.60;99.90;;;;;;4994547;28;20196;-71
2021/01/28 16:44:56;;;;;;;5.07;4.57;;;6.70;99.90;;;;;;4995385;28;20426;-72
2021/01/28 16:47:22;;;;;;;4.90;4.50;;;6.80;99.90;;;;;;4993184;28;20219;-72
2021/01/28 16:49:48;;;;;;;4.57;4.17;;;6.80;99.90;;;;;;4979727;28;20180;-71
2021/01/28 16:52:15;;;;;;;5.30;4.63;;;6.80;99.90;;;;;;4994470;28;20427;-72
2021/01/28 16:54:42;;;;;;;4.70;4.30;;;6.80;99.90;;;;;;4994509;28;20832;-72
2021/01/28 16:57:07;;;;;;;4.80;4.40;;;6.80;99.90;;;;;;4994309;28;20499;-71
2021/01/28 16:59:33;;;;;;;5.37;4.63;;;6.80;99.90;;;;;;4991037;28;20423;-72
2021/01/28 17:01:59;;;;;;;4.93;4.53;;;6.80;99.90;;;;;;4984702;28;20184;-71
2021/01/28 17:04:26;;;;;;;6.83;4.90;;;6.70;99.90;;;;;;4993813;28;20188;-71
2021/01/28 17:06:51;;;;;;;6.33;5.53;;;6.70;99.90;;;;;;4994438;28;20204;-72
2021/01/28 17:09:17;;;;;;;5.67;5.17;;;6.60;99.90;;;;;;4993801;28;20830;-71
2021/01/28 17:11:43;;;;;;;5.40;4.90;;;6.50;99.90;;;;;;4994032;28;20168;-72
2021/01/28 17:14:08;;;;;;;6.50;5.73;;;6.60;99.90;;;;;;4994594;28;20213;-71
2021/01/28 17:16:34;;;;;;;5.33;4.90;;;6.60;99.90;;;;;;4992625;28;20246;-70